Jette Viking Hv77 — 5QEP — position and weather

sailwx.info

Track history (hours):
 
Tides and Currents Weather Stations Pressure Air Temp Water Temp Dewpoint Dewpoint Depression Visibility Wind Speed Wind Dir Waves Ship Positions

Jette Viking Hv77

Last reported at 2014-Sep-30 16:31 UTC. Time now 2014-Oct-01 08:22 UTC.
Position N 57°30' E 010°39'.

Length 16 m.

Type: Fishing. MMSI: 220046000.

Date/timePositionNaut miles runAvg speedWind from/ knotsBaromVisibWave heightAir tempDewpointWater temp
2014-Sep-30 16:31N 57°30' E 010°39'5 1.0
2014-Sep-30 11:33N 57°30' E 010°30'0 0.0
2014-Sep-30 10:33N 57°30' E 010°30'0 0.0
2014-Sep-30 09:33N 57°30' E 010°30'0 0.0
2014-Sep-30 08:33N 57°30' E 010°30'0 0.0
2014-Sep-30 07:33N 57°30' E 010°30'1 1.2
2014-Sep-30 06:33N 57°30' E 010°32'3 2.7
2014-Sep-30 05:25N 57°32' E 010°36'3 2.4
2014-Sep-30 04:19N 57°34' E 010°40'2 2.5
2014-Sep-30 03:33N 57°36' E 010°40'2 1.9
2014-Sep-30 02:33N 57°34' E 010°39'2 2.2
2014-Sep-30 01:33N 57°32' E 010°39'3 2.5
2014-Sep-30 00:33N 57°34' E 010°39'2 2.0
2014-Sep-29 23:34N 57°36' E 010°39'2 2.2
2014-Sep-29 22:33N 57°34' E 010°39'2 2.5
2014-Sep-29 21:33N 57°32' E 010°40'5 2.1
2014-Sep-29 19:15N 57°36' E 010°41'2 2.1
2014-Sep-29 18:12N 57°34' E 010°39'7 0.8
2014-Sep-29 09:32N 57°30' E 010°30'0 0.1
2014-Sep-29 06:15N 57°30' E 010°30'10 2.7
2014-Sep-29 02:33N 57°35' E 010°46'10 0.5
2014-Sep-28 05:27N 57°30' E 010°30'0 0.0
2014-Sep-28 04:32N 57°30' E 010°30'0 0.0
2014-Sep-27 18:27N 57°30' E 010°30'0 0.0
2014-Sep-27 17:31N 57°30' E 010°30'0 0.0
2014-Sep-27 02:10N 57°30' E 010°30'  
2014-Sep-24 16:29N 57°30' E 010°30'0 0.0
2014-Sep-24 15:33N 57°30' E 010°30'  
2014-Sep-21 01:32N 57°30' E 010°30'0 0.0
2014-Sep-21 00:33N 57°30' E 010°30'0 0.0
2014-Sep-20 23:33N 57°30' E 010°30'0 0.0
2014-Sep-20 22:32N 57°30' E 010°30'0 0.0
2014-Sep-20 21:33N 57°30' E 010°30'0 0.0
2014-Sep-20 20:31N 57°30' E 010°30'0 0.0
2014-Sep-20 19:28N 57°30' E 010°30'0 0.0
2014-Sep-20 18:30N 57°30' E 010°30'0 0.0
2014-Sep-20 17:33N 57°30' E 010°30'0 0.0
2014-Sep-20 16:33N 57°30' E 010°30'  
Track history (hours):
 
Tides and Currents Weather Stations Pressure Air Temp Water Temp Dewpoint Dewpoint Depression Visibility Wind Speed Wind Dir Waves Ship Positions

Jette Viking Hv77

Last reported at 2014-Sep-30 16:31 UTC. Time now 2014-Oct-01 08:22 UTC.
Position N 57°30' E 010°39'.

Length 16 m.

Type: Fishing. MMSI: 220046000.

Date/timePositionNaut miles runAvg speedWind from/ knotsBaromVisibWave heightAir tempDewpointWater temp
2014-Sep-30 16:31N 57°30' E 010°39'5 1.0
2014-Sep-30 11:33N 57°30' E 010°30'0 0.0
2014-Sep-30 10:33N 57°30' E 010°30'0 0.0
2014-Sep-30 09:33N 57°30' E 010°30'0 0.0
2014-Sep-30 08:33N 57°30' E 010°30'0 0.0
2014-Sep-30 07:33N 57°30' E 010°30'1 1.2
2014-Sep-30 06:33N 57°30' E 010°32'3 2.7
2014-Sep-30 05:25N 57°32' E 010°36'3 2.4
2014-Sep-30 04:19N 57°34' E 010°40'2 2.5
2014-Sep-30 03:33N 57°36' E 010°40'2 1.9
2014-Sep-30 02:33N 57°34' E 010°39'2 2.2
2014-Sep-30 01:33N 57°32' E 010°39'3 2.5
2014-Sep-30 00:33N 57°34' E 010°39'2 2.0
2014-Sep-29 23:34N 57°36' E 010°39'2 2.2
2014-Sep-29 22:33N 57°34' E 010°39'2 2.5
2014-Sep-29 21:33N 57°32' E 010°40'5 2.1
2014-Sep-29 19:15N 57°36' E 010°41'2 2.1
2014-Sep-29 18:12N 57°34' E 010°39'7 0.8
2014-Sep-29 09:32N 57°30' E 010°30'0 0.1
2014-Sep-29 06:15N 57°30' E 010°30'10 2.7
2014-Sep-29 02:33N 57°35' E 010°46'10 0.5
2014-Sep-28 05:27N 57°30' E 010°30'0 0.0
2014-Sep-28 04:32N 57°30' E 010°30'0 0.0
2014-Sep-27 18:27N 57°30' E 010°30'0 0.0
2014-Sep-27 17:31N 57°30' E 010°30'0 0.0
2014-Sep-27 02:10N 57°30' E 010°30'  
2014-Sep-24 16:29N 57°30' E 010°30'0 0.0
2014-Sep-24 15:33N 57°30' E 010°30'  
2014-Sep-21 01:32N 57°30' E 010°30'0 0.0
2014-Sep-21 00:33N 57°30' E 010°30'0 0.0
2014-Sep-20 23:33N 57°30' E 010°30'0 0.0
2014-Sep-20 22:32N 57°30' E 010°30'0 0.0
2014-Sep-20 21:33N 57°30' E 010°30'0 0.0
2014-Sep-20 20:31N 57°30' E 010°30'0 0.0
2014-Sep-20 19:28N 57°30' E 010°30'0 0.0
2014-Sep-20 18:30N 57°30' E 010°30'0 0.0
2014-Sep-20 17:33N 57°30' E 010°30'0 0.0
2014-Sep-20 16:33N 57°30' E 010°30'  

Dump ship's entire track history